Item Display Status Inductive CT Sensor

Mooring Depth: 40 m

 

Deployed Sensor

  • Serial Number: 4194
  • NDBC Property Number: 24570
  • Start Date: 11/5/2018 (13:33:04 Z)
  • End Date: Currently Active
Water Temperature [°C]     6 entries per hour
Showing data from 11/19/2019 (15:00:00 Z) to 11/18/2019 (00:00:01 Z)
Previous Next [ Day | 3-Days | 7-Days ]
First Last
Prev [ Day | 3-Days | 7-Days ] Next
First Last

Start Time:     :
End Time:     :     
Time (in GMT) :00 :50 :40 :30 :20 :10
Previous Next [ Day | 3-Days | 7-Days ]
First Last
Prev [ Day | 3-Days | 7-Days ] Next
First Last


123 => good data
MM => data is determined as missing
-- => data not received/configured
Back to Top Back to Top
11/19/2019 15:00 to 14:10 24.148 24.148 24.147 24.149 24.148 24.147
11/19/2019 14:00 to 13:10 24.151 24.152 24.150 24.150 24.151 --
11/19/2019 13:00 to 12:10 24.156 24.155 24.152 24.156 24.155 24.159
11/19/2019 12:00 to 11:10 24.156 24.162 24.162 24.160 24.168 24.163
11/19/2019 11:00 to 10:10 24.161 24.164 24.173 24.164 24.161 24.179
11/19/2019 10:00 to 9:10 24.177 24.168 24.178 24.180 24.168 24.180
11/19/2019 09:00 to 8:10 24.169 24.175 24.175 24.165 24.166 24.175
11/19/2019 08:00 to 7:10 24.186 24.178 24.182 24.178 24.183 24.175
11/19/2019 07:00 to 6:10 24.190 24.189 -- -- 24.190 24.170
11/19/2019 06:00 to 5:10 24.188 24.180 24.161 24.144 24.188 24.194
11/19/2019 05:00 to 4:10 24.140 24.161 24.196 24.162 24.163 24.141
11/19/2019 04:00 to 3:10 24.140 24.138 24.142 24.143 24.144 24.148
11/19/2019 03:00 to 2:10 24.148 24.146 24.146 24.142 24.148 24.146
11/19/2019 02:00 to 1:10 24.151 24.149 24.144 24.142 24.145 24.144
11/19/2019 01:00 to 0:10 24.145 24.147 24.151 24.150 24.147 24.147
11/19/2019 00:00 to 23:10 24.148 24.148 24.146 24.146 24.147 24.151
11/18/2019 23:00 to 22:10 24.149 24.152 24.148 24.147 24.145 24.146
11/18/2019 22:00 to 21:10 24.146 24.149 24.149 24.149 24.149 24.149
11/18/2019 21:00 to 20:10 24.150 24.149 24.148 24.151 24.152 24.152
11/18/2019 20:00 to 19:10 24.150 24.148 24.148 24.149 24.150 24.150
11/18/2019 19:00 to 18:10 24.148 24.149 24.147 24.151 24.151 24.151
11/18/2019 18:00 to 17:10 24.151 24.146 -- 24.150 24.153 24.150
11/18/2019 17:00 to 16:10 24.155 24.154 24.159 -- -- 24.154
11/18/2019 16:00 to 15:10 24.160 24.157 24.163 24.157 24.162 24.153
11/18/2019 15:00 to 14:10 24.157 24.157 24.158 24.150 -- 24.153
11/18/2019 14:00 to 13:10 -- -- 24.149 24.142 24.151 24.152
11/18/2019 13:00 to 12:10 24.156 24.150 24.152 24.157 24.153 24.155
11/18/2019 12:00 to 11:10 24.156 24.151 24.154 24.161 24.161 24.166
11/18/2019 11:00 to 10:10 24.173 24.172 24.173 24.178 24.185 24.177
11/18/2019 10:00 to 9:10 24.180 24.159 24.178 24.185 24.182 24.194
11/18/2019 09:00 to 8:10 24.191 24.177 -- 24.165 24.178 24.169
11/18/2019 08:00 to 7:10 24.194 24.174 24.191 24.176 24.183 24.177
11/18/2019 07:00 to 6:10 24.189 24.169 24.175 24.171 24.171 24.177
11/18/2019 06:00 to 5:10 24.191 24.180 24.179 24.175 24.174 24.178
11/18/2019 05:00 to 4:10 24.172 24.174 24.171 -- 24.168 24.168
11/18/2019 04:00 to 3:10 24.168 24.169 24.169 24.166 24.165 24.169
11/18/2019 03:00 to 2:10 24.161 24.161 24.165 24.164 24.161 24.163
11/18/2019 02:00 to 1:10 24.163 24.166 24.168 24.167 24.176 24.166
11/18/2019 01:00 to 0:10 24.171 24.167 24.172 24.168 24.170 24.168

 

 

 

Conductivity [S/m]     6 entries per hour
Showing data from 11/19/2019 (15:00:00 Z) to 11/18/2019 (00:00:01 Z)
Previous Next [ Day | 3-Days | 7-Days ]
First Last
Prev [ Day | 3-Days | 7-Days ] Next
First Last

Start Time:     :
End Time:     :     
Time (in GMT) :00 :50 :40 :30 :20 :10
Previous Next [ Day | 3-Days | 7-Days ]
First Last
Prev [ Day | 3-Days | 7-Days ] Next
First Last


123 => good data
MM => data is determined as missing
-- => data not received/configured
Back to Top Back to Top
11/19/2019 15:00 to 14:10 5.19454 5.19452 5.19444 5.19464 5.19459 5.19447
11/19/2019 14:00 to 13:10 5.19487 5.19497 5.19474 5.19474 5.19482 5.19487
11/19/2019 13:00 to 12:10 5.19543 5.19530 5.19492 5.19543 5.19530 5.19582
11/19/2019 12:00 to 11:10 5.19543 5.19601 5.19598 5.19578 5.19656 5.19611
11/19/2019 11:00 to 10:10 5.19588 5.19621 5.19722 5.19623 5.19593 5.19778
11/19/2019 10:00 to 9:10 5.19760 5.19674 5.19780 5.19803 5.19672 5.19800
11/19/2019 09:00 to 8:10 5.19672 5.19740 5.19742 5.19646 5.19646 5.19742
11/19/2019 08:00 to 7:10 5.19823 5.19762 5.19800 5.19768 5.19760 5.19730
11/19/2019 07:00 to 6:10 5.19889 5.19871 5.19725 5.19712 5.19841 5.19669
11/19/2019 06:00 to 5:10 5.19889 5.19788 5.19583 5.19406 5.19843 5.19899
11/19/2019 05:00 to 4:10 5.19372 5.19563 5.19944 5.19618 5.19606 5.19346
11/19/2019 04:00 to 3:10 5.19381 5.19331 5.19374 5.19386 5.19394 5.19430
11/19/2019 03:00 to 2:10 5.19437 5.19417 5.19424 5.19381 5.19432 5.19430
11/19/2019 02:00 to 1:10 5.19467 5.19459 5.19392 5.19381 5.19404 5.19399
11/19/2019 01:00 to 0:10 5.19409 5.19417 5.19457 5.19447 5.19422 5.19422
11/19/2019 00:00 to 23:10 5.19424 5.19429 5.19411 5.19409 5.19427 5.19470
11/18/2019 23:00 to 22:10 5.19454 5.19497 5.19437 5.19429 5.19404 5.19406
11/18/2019 22:00 to 21:10 5.19414 5.19447 5.19442 5.19452 5.19449 5.19447
11/18/2019 21:00 to 20:10 5.19454 5.19442 5.19432 5.19467 5.19474 5.19480
11/18/2019 20:00 to 19:10 5.19449 5.19434 5.19424 5.19437 5.19447 5.19439
11/18/2019 19:00 to 18:10 5.19415 5.19434 5.19406 5.19444 5.19447 5.19459
11/18/2019 18:00 to 17:10 5.19459 5.19384 5.19474 5.19439 5.19464 5.19439
11/18/2019 17:00 to 16:10 5.19482 5.19477 5.19520 5.19472 5.19517 5.19477
11/18/2019 16:00 to 15:10 5.19553 5.19530 5.19591 5.19512 5.19579 5.19467
11/18/2019 15:00 to 14:10 5.19525 5.19528 5.19530 5.19432 5.19520 5.19470
11/18/2019 14:00 to 13:10 5.19497 5.19492 5.19422 5.19338 5.19447 5.19454
11/18/2019 13:00 to 12:10 5.19489 5.19411 5.19439 5.19512 5.19459 5.19482
11/18/2019 12:00 to 11:10 5.19500 5.19427 5.19459 5.19538 5.19540 5.19616
11/18/2019 11:00 to 10:10 5.19687 5.19679 5.19682 5.19740 5.19828 5.19752
11/18/2019 10:00 to 9:10 5.19773 5.19560 5.19752 5.19823 5.19790 5.19917
11/18/2019 09:00 to 8:10 5.19884 5.19720 5.19805 5.19601 5.19742 5.19654
11/18/2019 08:00 to 7:10 5.19917 5.19704 5.19876 5.19704 5.19798 5.19725
11/18/2019 07:00 to 6:10 5.19859 5.19652 5.19715 5.19682 5.19707 5.19762
11/18/2019 06:00 to 5:10 5.19856 5.19780 5.19760 5.19717 5.19697 5.19762
11/18/2019 05:00 to 4:10 5.19656 5.19692 5.19651 5.19596 5.19621 5.19616
11/18/2019 04:00 to 3:10 5.19603 5.19626 5.19626 5.19583 5.19582 5.19639
11/18/2019 03:00 to 2:10 5.19543 5.19545 5.19565 5.19563 5.19548 5.19581
11/18/2019 02:00 to 1:10 5.19573 5.19602 5.19646 5.19644 5.19704 5.19644
11/18/2019 01:00 to 0:10 5.19666 5.19654 5.19710 5.19682 5.19674 5.19639

 

 

 

Salinity [psu]     6 entries per hour
Showing data from 11/19/2019 (15:00:00 Z) to 11/18/2019 (00:00:01 Z)
Previous Next [ Day | 3-Days | 7-Days ]
First Last
Prev [ Day | 3-Days | 7-Days ] Next
First Last

Start Time:     :
End Time:     :     
Time (in GMT) :00 :50 :40 :30 :20 :10
Previous Next [ Day | 3-Days | 7-Days ]
First Last
Prev [ Day | 3-Days | 7-Days ] Next
First Last


123 => good data
MM => data is determined as missing
-- => data not received/configured
Back to Top Back to Top
11/19/2019 15:00 to 14:10 34.81 34.81 34.81 34.81 34.81 34.81
11/19/2019 14:00 to 13:10 34.81 34.81 34.81 34.81 34.81 --
11/19/2019 13:00 to 12:10 34.81 34.81 34.81 34.81 34.81 34.81
11/19/2019 12:00 to 11:10 34.81 34.81 34.81 34.81 34.81 34.81
11/19/2019 11:00 to 10:10 34.81 34.81 34.81 34.81 34.81 34.81
11/19/2019 10:00 to 9:10 34.81 34.81 34.81 34.81 34.81 34.81
11/19/2019 09:00 to 8:10 34.81 34.81 34.81 34.81 34.81 34.81
11/19/2019 08:00 to 7:10 34.81 34.81 34.81 34.81 34.80 34.81
11/19/2019 07:00 to 6:10 34.81 34.81 -- -- 34.80 34.81
11/19/2019 06:00 to 5:10 34.81 34.81 34.81 34.81 34.81 34.81
11/19/2019 05:00 to 4:10 34.81 34.81 34.81 34.81 34.81 34.80
11/19/2019 04:00 to 3:10 34.81 34.81 34.81 34.81 34.81 34.81
11/19/2019 03:00 to 2:10 34.81 34.81 34.81 34.81 34.81 34.81
11/19/2019 02:00 to 1:10 34.81 34.81 34.81 34.81 34.81 34.81
11/19/2019 01:00 to 0:10 34.81 34.81 34.81 34.81 34.81 34.81
11/19/2019 00:00 to 23:10 34.81 34.81 34.81 34.81 34.81 34.81
11/18/2019 23:00 to 22:10 34.81 34.81 34.81 34.81 34.81 34.81
11/18/2019 22:00 to 21:10 34.81 34.81 34.81 34.81 34.81 34.81
11/18/2019 21:00 to 20:10 34.81 34.81 34.81 34.81 34.81 34.81
11/18/2019 20:00 to 19:10 34.81 34.81 34.81 34.81 34.81 34.81
11/18/2019 19:00 to 18:10 34.81 34.81 34.81 34.80 34.80 34.81
11/18/2019 18:00 to 17:10 34.81 34.80 -- 34.81 34.81 34.80
11/18/2019 17:00 to 16:10 34.80 34.80 34.80 -- -- 34.80
11/18/2019 16:00 to 15:10 34.81 34.81 34.81 34.81 34.81 34.81
11/18/2019 15:00 to 14:10 34.81 34.81 34.81 34.81 -- 34.81
11/18/2019 14:00 to 13:10 -- -- 34.80 34.80 34.81 34.80
11/18/2019 13:00 to 12:10 34.80 34.80 34.80 34.81 34.80 34.80
11/18/2019 12:00 to 11:10 34.81 34.80 34.80 34.80 34.80 34.81
11/18/2019 11:00 to 10:10 34.81 34.81 34.81 34.81 34.81 34.81
11/18/2019 10:00 to 9:10 34.81 34.81 34.81 34.81 34.81 34.81
11/18/2019 09:00 to 8:10 34.81 34.81 34.80 34.81 34.81 34.81
11/18/2019 08:00 to 7:10 34.81 34.81 34.81 34.80 34.81 34.81
11/18/2019 07:00 to 6:10 34.81 34.81 34.81 34.81 34.81 34.81
11/18/2019 06:00 to 5:10 34.80 34.81 34.81 34.81 34.81 34.81
11/18/2019 05:00 to 4:10 34.80 34.81 34.80 -- 34.80 34.80
11/18/2019 04:00 to 3:10 34.80 34.80 34.80 34.80 34.80 34.81
11/18/2019 03:00 to 2:10 34.80 34.80 34.80 34.80 34.80 34.81
11/18/2019 02:00 to 1:10 34.81 34.80 34.81 34.81 34.81 34.81
11/18/2019 01:00 to 0:10 34.81 34.81 34.81 34.81 34.81 34.81